Saint Bonnet de Bellac- Haute Vienne - France
Donnes mto: vendredi, 10/02/2012
Date Horaire Temp. E. Hum. E. P.atmo. Pluie Vent Direction Direction Ensoleilleme Solaire P. de rose Temp au vent Rafales
10/02/2012 00:00 -8,6 C 83 % 1030,6 hPa 0,0 mm 0,0 km/h (0 Bft) NE 45 0 min 0 W/m -11,0 C -8,6 C 0,0 km/h (0 Bft)
10/02/2012 00:10 -8,7 C 83 % 1030,7 hPa 0,0 mm 0,0 km/h (0 Bft) N-NE 22 0 min 0 W/m -11,0 C -8,7 C 0,0 km/h (0 Bft)
10/02/2012 00:20 -8,9 C 83 % 1030,6 hPa 0,0 mm 0,0 km/h (0 Bft) N 360 0 min 0 W/m -11,2 C -8,9 C 0,0 km/h (0 Bft)
10/02/2012 00:30 -9,0 C 83 % 1030,6 hPa 0,0 mm 0,0 km/h (0 Bft) NE 45 0 min 0 W/m -11,3 C -9,0 C 0,0 km/h (0 Bft)
10/02/2012 00:40 -9,2 C 83 % 1030,6 hPa 0,0 mm 0,0 km/h (0 Bft) N-NE 22 0 min 0 W/m -11,5 C -9,2 C 0,0 km/h (0 Bft)
10/02/2012 00:50 -9,3 C 83 % 1030,4 hPa 0,0 mm 0,0 km/h (0 Bft) NE 45 0 min 0 W/m -11,6 C -9,3 C 0,0 km/h (0 Bft)
10/02/2012 01:00 -9,2 C 84 % 1030,3 hPa 0,0 mm 0,7 km/h (0 Bft) N 360 0 min 0 W/m -11,4 C -9,2 C 4,3 km/h (1 Bft)
10/02/2012 01:10 -9,2 C 84 % 1030,4 hPa 0,0 mm 0,0 km/h (0 Bft) N-NE 22 0 min 0 W/m -11,4 C -9,2 C 0,0 km/h (0 Bft)
10/02/2012 01:20 -9,3 C 84 % 1030,3 hPa 0,0 mm 0,0 km/h (0 Bft) N 360 0 min 0 W/m -11,5 C -9,3 C 0,0 km/h (0 Bft)
10/02/2012 01:30 -9,4 C 84 % 1030,2 hPa 0,0 mm 0,0 km/h (0 Bft) N-NE 22 0 min 0 W/m -11,6 C -9,4 C 0,0 km/h (0 Bft)
10/02/2012 01:40 -9,4 C 85 % 1030,2 hPa 0,0 mm 1,1 km/h (1 Bft) N 360 0 min 0 W/m -11,4 C -9,4 C 1,1 km/h (1 Bft)
10/02/2012 01:50 -9,2 C 85 % 1030,2 hPa 0,0 mm 2,5 km/h (1 Bft) N-NE 22 0 min 0 W/m -11,2 C -9,2 C 4,0 km/h (1 Bft)
10/02/2012 02:02 -9,2 C 85 % 1030,2 hPa 0,0 mm 0,0 km/h (0 Bft) N-NE 22 0 min 0 W/m -11,2 C -9,2 C 0,0 km/h (0 Bft)
10/02/2012 02:10 -9,4 C 85 % 1030,1 hPa 0,0 mm 3,2 km/h (1 Bft) N 360 0 min 0 W/m -11,4 C -9,4 C 3,2 km/h (1 Bft)
10/02/2012 02:20 -9,6 C 85 % 1030,0 hPa 0,0 mm 1,8 km/h (1 Bft) N-NE 22 0 min 0 W/m -11,6 C -9,6 C 6,1 km/h (2 Bft)
10/02/2012 02:30 -9,7 C 85 % 1030,1 hPa 0,0 mm 1,8 km/h (1 Bft) NE 45 0 min 0 W/m -11,7 C -9,7 C 4,3 km/h (1 Bft)
10/02/2012 02:40 -9,7 C 86 % 1030,0 hPa 0,0 mm 3,6 km/h (1 Bft) N-NE 22 0 min 0 W/m -11,6 C -9,7 C 4,7 km/h (1 Bft)
10/02/2012 02:50 -9,6 C 86 % 1030,0 hPa 0,0 mm 5,0 km/h (1 Bft) N-NE 22 0 min 0 W/m -11,5 C -12,5 C 9,4 km/h (2 Bft)
10/02/2012 03:00 -9,4 C 86 % 1030,0 hPa 0,0 mm 2,9 km/h (1 Bft) N 360 0 min 0 W/m -11,3 C -9,4 C 4,3 km/h (1 Bft)
10/02/2012 03:10 -9,2 C 87 % 1030,0 hPa 0,0 mm 2,5 km/h (1 Bft) N 360 0 min 0 W/m -11,0 C -9,2 C 6,1 km/h (2 Bft)
10/02/2012 03:20 -9,2 C 87 % 1030,0 hPa 0,0 mm 3,6 km/h (1 Bft) N 360 0 min 0 W/m -11,0 C -9,2 C 6,1 km/h (2 Bft)
10/02/2012 03:30 -9,2 C 87 % 1029,9 hPa 0,0 mm 5,4 km/h (2 Bft) N-NE 22 0 min 0 W/m -11,0 C -12,3 C 7,9 km/h (2 Bft)
10/02/2012 03:40 -9,2 C 87 % 1030,0 hPa 0,0 mm 2,5 km/h (1 Bft) NE 45 0 min 0 W/m -11,0 C -9,2 C 2,9 km/h (1 Bft)
10/02/2012 03:50 -9,1 C 87 % 1030,0 hPa 0,0 mm 5,0 km/h (1 Bft) NE 45 0 min 0 W/m -10,9 C -11,9 C 8,3 km/h (2 Bft)
10/02/2012 04:00 -9,1 C 87 % 1030,0 hPa 0,0 mm 1,4 km/h (1 Bft) NE 45 0 min 0 W/m -10,9 C -9,1 C 3,2 km/h (1 Bft)
10/02/2012 04:10 -9,1 C 87 % 1029,9 hPa 0,0 mm 4,7 km/h (1 Bft) NE 45 0 min 0 W/m -10,9 C -11,7 C 7,2 km/h (2 Bft)
10/02/2012 04:20 -8,9 C 88 % 1029,9 hPa 0,0 mm 4,7 km/h (1 Bft) NE 45 0 min 0 W/m -10,5 C -11,5 C 8,3 km/h (2 Bft)
10/02/2012 04:30 -8,9 C 88 % 1029,9 hPa 0,0 mm 6,1 km/h (2 Bft) N 360 0 min 0 W/m -10,5 C -12,3 C 8,6 km/h (2 Bft)
10/02/2012 04:40 -9,0 C 87 % 1029,8 hPa 0,0 mm 7,2 km/h (2 Bft) N-NE 22 0 min 0 W/m -10,8 C -13,0 C 10,1 km/h (2 Bft)
10/02/2012 04:50 -9,1 C 88 % 1029,8 hPa 0,0 mm 5,8 km/h (2 Bft) N-NE 22 0 min 0 W/m -10,7 C -12,4 C 5,8 km/h (2 Bft)
10/02/2012 05:00 -9,1 C 88 % 1029,8 hPa 0,0 mm 3,2 km/h (1 Bft) N-NE 22 0 min 0 W/m -10,7 C -9,1 C 7,9 km/h (2 Bft)
10/02/2012 05:10 -9,1 C 88 % 1029,7 hPa 0,0 mm 2,5 km/h (1 Bft) N-NE 22 0 min 0 W/m -10,7 C -9,1 C 6,5 km/h (2 Bft)
10/02/2012 05:20 -9,4 C 87 % 1029,7 hPa 0,0 mm 0,7 km/h (0 Bft) N 360 0 min 0 W/m -11,2 C -9,4 C 0,7 km/h (0 Bft)
10/02/2012 05:30 -9,7 C 87 % 1029,7 hPa 0,0 mm 2,5 km/h (1 Bft) N-NE 22 0 min 0 W/m -11,4 C -9,7 C 6,1 km/h (2 Bft)
10/02/2012 05:40 -10,1 C 87 % 1029,8 hPa 0,0 mm 0,4 km/h (0 Bft) N-NO 337 0 min 0 W/m -11,8 C -10,1 C 1,4 km/h (1 Bft)
10/02/2012 05:50 -10,2 C 87 % 1029,9 hPa 0,0 mm 0,0 km/h (0 Bft) S-SE 157 0 min 0 W/m -11,9 C -10,2 C 0,0 km/h (0 Bft)
10/02/2012 06:00 -10,6 C 87 % 1030,0 hPa 0,0 mm 0,0 km/h (0 Bft) NE 45 0 min 0 W/m -12,3 C -10,6 C 0,0 km/h (0 Bft)
10/02/2012 06:10 -10,9 C 87 % 1030,0 hPa 0,0 mm 1,8 km/h (1 Bft) N 360 0 min 0 W/m -12,6 C -10,9 C 4,3 km/h (1 Bft)
10/02/2012 06:20 -11,1 C 87 % 1029,9 hPa 0,0 mm 0,4 km/h (0 Bft) N-NE 22 0 min 0 W/m -12,8 C -11,1 C 3,2 km/h (1 Bft)
10/02/2012 06:30 -11,2 C 87 % 1029,9 hPa 0,0 mm 3,6 km/h (1 Bft) N 360 0 min 0 W/m -12,9 C -11,2 C 7,2 km/h (2 Bft)
10/02/2012 06:40 -11,2 C 87 % 1029,9 hPa 0,0 mm 1,8 km/h (1 Bft) NE 45 0 min 0 W/m -12,9 C -11,2 C 6,1 km/h (2 Bft)
10/02/2012 06:50 -11,2 C 87 % 1029,9 hPa 0,0 mm 0,0 km/h (0 Bft) N-NE 22 0 min 0 W/m -12,9 C -11,2 C 0,0 km/h (0 Bft)
10/02/2012 07:00 -11,2 C 87 % 1029,9 hPa 0,0 mm 0,7 km/h (0 Bft) N 360 0 min 0 W/m -12,9 C -11,2 C 3,6 km/h (1 Bft)
10/02/2012 07:10 -11,3 C 87 % 1030,0 hPa 0,0 mm 0,4 km/h (0 Bft) N 360 0 min 0 W/m -13,0 C -11,3 C 3,2 km/h (1 Bft)
10/02/2012 07:20 -11,4 C 87 % 1030,0 hPa 0,0 mm 1,8 km/h (1 Bft) N-NE 22 0 min 0 W/m -13,1 C -11,4 C 6,5 km/h (2 Bft)
10/02/2012 07:30 -11,4 C 87 % 1029,9 hPa 0,0 mm 0,7 km/h (0 Bft) N-NE 22 0 min 0 W/m -13,1 C -11,4 C 3,6 km/h (1 Bft)
10/02/2012 07:40 -11,4 C 87 % 1030,0 hPa 0,0 mm 0,4 km/h (0 Bft) NE 45 0 min 0 W/m -13,1 C -11,4 C 0,4 km/h (0 Bft)
10/02/2012 07:50 -11,5 C 87 % 1030,0 hPa 0,0 mm 2,5 km/h (1 Bft) N 360 0 min 0 W/m -13,2 C -11,5 C 7,2 km/h (2 Bft)
10/02/2012 08:00 -11,6 C 87 % 1030,1 hPa 0,0 mm 0,4 km/h (0 Bft) N-NE 22 0 min 0 W/m -13,3 C -11,6 C 4,0 km/h (1 Bft)
10/02/2012 08:10 -11,6 C 87 % 1030,1 hPa 0,0 mm 0,0 km/h (0 Bft) N 360 0 min 0 W/m -13,3 C -11,6 C 0,0 km/h (0 Bft)
10/02/2012 08:20 -11,7 C 87 % 1030,2 hPa 0,0 mm 1,1 km/h (1 Bft) E-NE 67 2 min 0 W/m -13,4 C -11,7 C 4,3 km/h (1 Bft)
10/02/2012 08:30 -11,8 C 87 % 1030,4 hPa 0,0 mm 0,7 km/h (0 Bft) NE 45 2 min 0 W/m -13,5 C -11,8 C 0,7 km/h (0 Bft)
10/02/2012 08:40 -11,8 C 88 % 1030,5 hPa 0,0 mm 0,0 km/h (0 Bft) E-NE 67 2 min 0 W/m -13,4 C -11,8 C 0,0 km/h (0 Bft)
10/02/2012 08:50 -11,7 C 88 % 1030,6 hPa 0,0 mm 0,0 km/h (0 Bft) NE 45 2 min 0 W/m -13,3 C -11,7 C 0,0 km/h (0 Bft)
10/02/2012 09:00 -11,4 C 88 % 1030,7 hPa 0,0 mm 0,0 km/h (0 Bft) N-NE 22 2 min 0 W/m -13,0 C -11,4 C 0,0 km/h (0 Bft)
10/02/2012 09:10 -10,9 C 89 % 1030,9 hPa 0,0 mm 0,0 km/h (0 Bft) N-NE 22 2 min 0 W/m -12,3 C -10,9 C 0,0 km/h (0 Bft)
10/02/2012 09:20 -10,1 C 89 % 1030,8 hPa 0,0 mm 0,0 km/h (0 Bft) N 360 2 min 0 W/m -11,6 C -10,1 C 0,0 km/h (0 Bft)
10/02/2012 09:30 -9,2 C 89 % 1030,9 hPa 0,0 mm 0,0 km/h (0 Bft) N-NE 22 2 min 0 W/m -10,7 C -9,2 C 0,0 km/h (0 Bft)
10/02/2012 09:40 -8,5 C 89 % 1030,9 hPa 0,0 mm 0,0 km/h (0 Bft) NE 45 2 min 0 W/m -10,0 C -8,5 C 0,0 km/h (0 Bft)
10/02/2012 09:50 -7,7 C 89 % 1030,9 hPa 0,0 mm 0,4 km/h (0 Bft) NE 45 2 min 0 W/m -9,2 C -7,7 C 3,6 km/h (1 Bft)
10/02/2012 10:00 -7,1 C 88 % 1031,0 hPa 0,0 mm 0,4 km/h (0 Bft) N-NE 22 2 min 0 W/m -8,7 C -7,1 C 3,2 km/h (1 Bft)
10/02/2012 10:10 -6,4 C 88 % 1031,1 hPa 0,0 mm 2,5 km/h (1 Bft) N-NE 22 2 min 0 W/m -8,1 C -6,4 C 4,3 km/h (1 Bft)
10/02/2012 10:20 -5,9 C 87 % 1031,2 hPa 0,0 mm 3,2 km/h (1 Bft) N-NE 22 2 min 0 W/m -7,7 C -5,9 C 6,1 km/h (2 Bft)
10/02/2012 10:30 -5,5 C 86 % 1031,2 hPa 0,0 mm 0,7 km/h (0 Bft) NE 45 2 min 0 W/m -7,5 C -5,5 C 4,3 km/h (1 Bft)
10/02/2012 10:40 -5,1 C 86 % 1031,2 hPa 0,0 mm 5,4 km/h (2 Bft) NE 45 2 min 0 W/m -7,1 C -7,6 C 7,6 km/h (2 Bft)
10/02/2012 10:50 -4,6 C 86 % 1031,2 hPa 0,0 mm 1,8 km/h (1 Bft) N-NE 22 2 min 0 W/m -6,6 C -4,6 C 6,8 km/h (2 Bft)
10/02/2012 11:00 -4,2 C 84 % 1031,3 hPa 0,0 mm 5,0 km/h (1 Bft) N-NE 22 2 min 0 W/m -6,5 C -6,4 C 5,0 km/h (1 Bft)
10/02/2012 11:10 -4,0 C 82 % 1031,3 hPa 0,0 mm 5,0 km/h (1 Bft) E-NE 67 2 min 0 W/m -6,6 C -6,1 C 8,6 km/h (2 Bft)
10/02/2012 11:20 -3,6 C 82 % 1031,3 hPa 0,0 mm 5,4 km/h (2 Bft) N-NE 22 2 min 0 W/m -6,2 C -5,9 C 6,5 km/h (2 Bft)
10/02/2012 11:30 -3,2 C 81 % 1031,1 hPa 0,0 mm 5,4 km/h (2 Bft) N-NE 22 2 min 0 W/m -6,0 C -5,4 C 5,4 km/h (2 Bft)
10/02/2012 11:40 -2,8 C 80 % 1031,4 hPa 0,0 mm 9,0 km/h (2 Bft) N-NE 22 2 min 0 W/m -5,8 C -6,4 C 13,0 km/h (3 Bft)
10/02/2012 11:50 -2,6 C 79 % 1031,3 hPa 0,0 mm 7,2 km/h (2 Bft) NE 45 2 min 0 W/m -5,7 C -5,5 C 10,4 km/h (2 Bft)
10/02/2012 12:00 -2,4 C 77 % 1031,3 hPa 0,0 mm 8,3 km/h (2 Bft) NE 45 2 min 0 W/m -5,9 C -5,7 C 8,3 km/h (2 Bft)
10/02/2012 12:10 -2,2 C 77 % 1031,2 hPa 0,0 mm 6,1 km/h (2 Bft) N 360 2 min 0 W/m -5,7 C -4,6 C 8,6 km/h (2 Bft)
10/02/2012 12:20 -2,1 C 75 % 1031,2 hPa 0,0 mm 8,3 km/h (2 Bft) N 360 2 min 0 W/m -5,9 C -5,3 C 12,2 km/h (2 Bft)
10/02/2012 12:30 -1,8 C 74 % 1031,1 hPa 0,0 mm 6,8 km/h (2 Bft) NE 45 2 min 0 W/m -5,8 C -4,4 C 11,5 km/h (2 Bft)
10/02/2012 12:40 -1,8 C 73 % 1031,1 hPa 0,0 mm 4,7 km/h (1 Bft) N-NE 22 2 min 0 W/m -6,0 C -3,5 C 7,2 km/h (2 Bft)
10/02/2012 12:50 -1,6 C 73 % 1031,0 hPa 0,0 mm 5,8 km/h (2 Bft) N-NE 22 2 min 0 W/m -5,8 C -3,8 C 9,0 km/h (2 Bft)
10/02/2012 13:00 -1,4 C 72 % 1030,9 hPa 0,0 mm 7,6 km/h (2 Bft) NE 45 2 min 0 W/m -5,8 C -4,2 C 9,4 km/h (2 Bft)
10/02/2012 13:10 -1,4 C 71 % 1030,8 hPa 0,0 mm 8,6 km/h (2 Bft) N-NE 22 2 min 0 W/m -6,0 C -4,6 C 13,7 km/h (3 Bft)
10/02/2012 13:20 -1,4 C 71 % 1030,6 hPa 0,0 mm 10,4 km/h (2 Bft) NE 45 2 min 0 W/m -6,0 C -5,1 C 17,3 km/h (3 Bft)
10/02/2012 13:30 -1,4 C 71 % 1030,5 hPa 0,0 mm 6,5 km/h (2 Bft) NE 45 2 min 0 W/m -6,0 C -3,8 C 9,7 km/h (2 Bft)
10/02/2012 13:40 -1,3 C 70 % 1030,1 hPa 0,0 mm 4,0 km/h (1 Bft) N-NE 22 2 min 0 W/m -6,0 C -1,3 C 7,2 km/h (2 Bft)
10/02/2012 13:50 -1,4 C 70 % 1029,8 hPa 0,0 mm 4,0 km/h (1 Bft) N 360 2 min 0 W/m -6,1 C -1,4 C 4,0 km/h (1 Bft)
10/02/2012 14:00 -1,5 C 70 % 1030,0 hPa 0,0 mm 8,6 km/h (2 Bft) NE 45 2 min 0 W/m -6,2 C -4,7 C 11,9 km/h (2 Bft)
10/02/2012 14:10 -1,6 C 69 % 1030,2 hPa 0,0 mm 9,7 km/h (2 Bft) N-NE 22 2 min 0 W/m -6,5 C -5,1 C 13,0 km/h (3 Bft)
10/02/2012 14:20 -1,6 C 68 % 1030,2 hPa 0,0 mm 7,9 km/h (2 Bft) NE 45 2 min 0 W/m -6,7 C -4,6 C 13,0 km/h (3 Bft)
10/02/2012 14:30 -1,6 C 68 % 1030,0 hPa 0,0 mm 9,0 km/h (2 Bft) NE 45 2 min 0 W/m -6,7 C -4,9 C 11,9 km/h (2 Bft)
10/02/2012 14:40 -1,7 C 68 % 1029,8 hPa 0,0 mm 7,6 km/h (2 Bft) NE 45 2 min 0 W/m -6,8 C -4,6 C 11,2 km/h (2 Bft)
10/02/2012 14:50 -1,7 C 68 % 1029,4 hPa 0,0 mm 10,8 km/h (2 Bft) NE 45 2 min 0 W/m -6,8 C -5,6 C 16,2 km/h (3 Bft)
10/02/2012 15:00 -1,8 C 68 % 1029,3 hPa 0,0 mm 9,0 km/h (2 Bft) NE 45 2 min 0 W/m -6,9 C -5,2 C 9,4 km/h (2 Bft)
10/02/2012 15:10 -1,9 C 68 % 1029,2 hPa 0,0 mm 7,6 km/h (2 Bft) N 360 2 min 0 W/m -7,0 C -4,8 C 8,6 km/h (2 Bft)
10/02/2012 15:20 -1,9 C 68 % 1029,0 hPa 0,0 mm 7,9 km/h (2 Bft) NE 45 2 min 0 W/m -7,0 C -4,9 C 11,5 km/h (2 Bft)
10/02/2012 15:30 -2,1 C 69 % 1028,8 hPa 0,0 mm 9,0 km/h (2 Bft) N-NE 22 2 min 0 W/m -7,0 C -5,5 C 12,2 km/h (2 Bft)
10/02/2012 15:40 -2,2 C 68 % 1028,8 hPa 0,0 mm 8,6 km/h (2 Bft) NE 45 2 min 0 W/m -7,3 C -5,5 C 11,5 km/h (2 Bft)
10/02/2012 15:50 -2,1 C 69 % 1028,5 hPa 0,0 mm 6,1 km/h (2 Bft) NE 45 2 min 0 W/m -7,0 C -4,5 C 9,7 km/h (2 Bft)
10/02/2012 16:00 -2,0 C 69 % 1028,5 hPa 0,0 mm 3,2 km/h (1 Bft) NE 45 2 min 0 W/m -6,9 C -2,0 C 7,6 km/h (2 Bft)
10/02/2012 16:10 -2,1 C 69 % 1028,4 hPa 0,0 mm 10,1 km/h (2 Bft) E-NE 67 2 min 0 W/m -7,0 C -5,9 C 11,5 km/h (2 Bft)
10/02/2012 16:20 -2,2 C 69 % 1028,2 hPa 0,0 mm 9,4 km/h (2 Bft) N-NE 22 2 min 0 W/m -7,1 C -5,8 C 12,2 km/h (2 Bft)
10/02/2012 16:30 -2,2 C 70 % 1028,2 hPa 0,0 mm 9,4 km/h (2 Bft) E-NE 67 2 min 0 W/m -6,9 C -5,8 C 12,6 km/h (3 Bft)
10/02/2012 16:40 -2,4 C 70 % 1028,1 hPa 0,0 mm 9,7 km/h (2 Bft) N 360 2 min 0 W/m -7,1 C -6,1 C 15,1 km/h (3 Bft)
10/02/2012 16:50 -2,6 C 70 % 1028,0 hPa 0,0 mm 5,8 km/h (2 Bft) N-NE 22 2 min 0 W/m -7,3 C -4,9 C 7,9 km/h (2 Bft)
10/02/2012 17:00 -2,6 C 70 % 1028,0 hPa 0,0 mm 4,3 km/h (1 Bft) N-NE 22 2 min 0 W/m -7,3 C -2,6 C 7,2 km/h (2 Bft)
10/02/2012 17:10 -2,6 C 70 % 1027,9 hPa 0,0 mm 4,3 km/h (1 Bft) N 360 2 min 0 W/m -7,3 C -2,6 C 4,3 km/h (1 Bft)
10/02/2012 17:20 -2,7 C 70 % 1027,8 hPa 0,0 mm 3,2 km/h (1 Bft) NE 45 2 min 0 W/m -7,4 C -2,7 C 6,8 km/h (2 Bft)
10/02/2012 17:30 -2,8 C 70 % 1027,7 hPa 0,0 mm 5,8 km/h (2 Bft) NE 45 2 min 0 W/m -7,5 C -5,2 C 6,1 km/h (2 Bft)
10/02/2012 17:40 -2,9 C 70 % 1027,8 hPa 0,0 mm 7,9 km/h (2 Bft) NE 45 2 min 0 W/m -7,6 C -6,1 C 10,4 km/h (2 Bft)
10/02/2012 17:50 -3,1 C 69 % 1027,7 hPa 0,0 mm 3,6 km/h (1 Bft) NE 45 2 min 0 W/m -8,0 C -3,1 C 9,4 km/h (2 Bft)
10/02/2012 18:00 -3,3 C 70 % 1027,7 hPa 0,0 mm 5,4 km/h (2 Bft) N 360 2 min 0 W/m -8,0 C -5,5 C 7,2 km/h (2 Bft)
10/02/2012 18:10 -3,6 C 70 % 1027,6 hPa 0,0 mm 4,3 km/h (1 Bft) NE 45 0 min 0 W/m -8,3 C -3,6 C 10,4 km/h (2 Bft)
10/02/2012 18:20 -3,8 C 70 % 1027,6 hPa 0,0 mm 2,2 km/h (1 Bft) NE 45 0 min 0 W/m -8,4 C -3,8 C 4,3 km/h (1 Bft)
10/02/2012 18:30 -4,1 C 70 % 1027,6 hPa 0,0 mm 1,8 km/h (1 Bft) N-NE 22 0 min 0 W/m -8,7 C -4,1 C 1,8 km/h (1 Bft)
10/02/2012 18:40 -4,3 C 70 % 1027,7 hPa 0,0 mm 0,0 km/h (0 Bft) N-NE 22 0 min 0 W/m -8,9 C -4,3 C 0,0 km/h (0 Bft)
10/02/2012 18:50 -4,6 C 71 % 1027,7 hPa 0,0 mm 2,9 km/h (1 Bft) NE 45 0 min 0 W/m -9,0 C -4,6 C 5,0 km/h (1 Bft)
10/02/2012 19:00 -4,8 C 71 % 1027,7 hPa 0,0 mm 4,0 km/h (1 Bft) N 360 0 min 0 W/m -9,2 C -4,8 C 6,5 km/h (2 Bft)
10/02/2012 19:10 -5,1 C 72 % 1027,7 hPa 0,0 mm 4,7 km/h (1 Bft) N-NE 22 0 min 0 W/m -9,3 C -7,2 C 7,2 km/h (2 Bft)
10/02/2012 19:20 -5,2 C 72 % 1027,6 hPa 0,0 mm 4,0 km/h (1 Bft) E-NE 67 0 min 0 W/m -9,4 C -5,2 C 7,6 km/h (2 Bft)
10/02/2012 19:30 -5,3 C 72 % 1027,7 hPa 0,0 mm 3,2 km/h (1 Bft) N-NE 22 0 min 0 W/m -9,5 C -5,3 C 7,6 km/h (2 Bft)
10/02/2012 19:40 -5,4 C 73 % 1027,6 hPa 0,0 mm 5,0 km/h (1 Bft) E-NE 67 0 min 0 W/m -9,5 C -7,7 C 8,6 km/h (2 Bft)
10/02/2012 19:50 -5,6 C 73 % 1027,6 hPa 0,0 mm 3,2 km/h (1 Bft) N-NE 22 0 min 0 W/m -9,6 C -5,6 C 6,1 km/h (2 Bft)
10/02/2012 20:00 -5,7 C 73 % 1027,6 hPa 0,0 mm 6,1 km/h (2 Bft) NE 45 0 min 0 W/m -9,7 C -8,6 C 9,4 km/h (2 Bft)
10/02/2012 20:10 -5,8 C 74 % 1027,6 hPa 0,0 mm 3,2 km/h (1 Bft) E-NE 67 0 min 0 W/m -9,7 C -5,8 C 4,0 km/h (1 Bft)
10/02/2012 20:20 -5,9 C 74 % 1027,5 hPa 0,0 mm 5,8 km/h (2 Bft) NE 45 0 min 0 W/m -9,8 C -8,7 C 10,4 km/h (2 Bft)
10/02/2012 20:30 -6,0 C 75 % 1027,4 hPa 0,0 mm 8,3 km/h (2 Bft) N-NE 22 0 min 0 W/m -9,7 C -9,9 C 9,0 km/h (2 Bft)
10/02/2012 20:40 -6,1 C 76 % 1027,4 hPa 0,0 mm 5,4 km/h (2 Bft) N 360 0 min 0 W/m -9,6 C -8,7 C 7,9 km/h (2 Bft)
10/02/2012 20:50 -6,2 C 77 % 1027,4 hPa 0,0 mm 6,8 km/h (2 Bft) N 360 0 min 0 W/m -9,6 C -9,5 C 10,8 km/h (2 Bft)
10/02/2012 21:00 -6,2 C 77 % 1027,4 hPa 0,0 mm 5,0 km/h (1 Bft) N-NE 22 0 min 0 W/m -9,6 C -8,6 C 7,2 km/h (2 Bft)
10/02/2012 21:10 -6,4 C 77 % 1027,4 hPa 0,0 mm 3,6 km/h (1 Bft) NE 45 0 min 0 W/m -9,7 C -6,4 C 4,0 km/h (1 Bft)
10/02/2012 21:20 -6,5 C 77 % 1027,5 hPa 0,0 mm 4,3 km/h (1 Bft) NE 45 0 min 0 W/m -9,8 C -6,5 C 7,6 km/h (2 Bft)
10/02/2012 21:30 -6,6 C 78 % 1027,5 hPa 0,0 mm 5,8 km/h (2 Bft) N-NE 22 0 min 0 W/m -9,8 C -9,5 C 5,8 km/h (2 Bft)
10/02/2012 21:40 -6,7 C 78 % 1027,6 hPa 0,0 mm 1,4 km/h (1 Bft) NE 45 0 min 0 W/m -9,9 C -6,7 C 2,9 km/h (1 Bft)
10/02/2012 21:50 -6,9 C 79 % 1027,6 hPa 0,0 mm 3,2 km/h (1 Bft) N-NE 22 0 min 0 W/m -9,9 C -6,9 C 4,3 km/h (1 Bft)
10/02/2012 22:00 -7,1 C 79 % 1027,5 hPa 0,0 mm 2,9 km/h (1 Bft) N-NO 337 0 min 0 W/m -10,1 C -7,1 C 4,3 km/h (1 Bft)
10/02/2012 22:10 -7,2 C 79 % 1027,4 hPa 0,0 mm 6,1 km/h (2 Bft) N-NE 22 0 min 0 W/m -10,2 C -10,4 C 7,9 km/h (2 Bft)
10/02/2012 22:20 -7,2 C 79 % 1027,5 hPa 0,0 mm 4,7 km/h (1 Bft) N-NE 22 0 min 0 W/m -10,2 C -9,6 C 9,0 km/h (2 Bft)
10/02/2012 22:30 -7,4 C 80 % 1027,3 hPa 0,0 mm 5,0 km/h (1 Bft) N 360 0 min 0 W/m -10,2 C -10,0 C 7,9 km/h (2 Bft)
_ Min-Heure 08:40 15:40 22:30 - 18:40 - - - - 08:30 04:40 18:40
Minimum _ -11,8 C 68 % 1027,3 hPa - 0,0 km/h (0 Bft) - - - - -13,5 C -13,0 C 0,0 km/h (0 Bft)
_ Max-Heure 13:40 09:50 11:40 22:30 14:50 - - 18:00 22:30 12:10 13:40 13:20
Maximum _ -1,3 C 89 % 1031,4 hPa 0,0 mm 10,8 km/h
NE (2 Bft)
- - 2 min 0 W/m -5,7 C -1,3 C 17,3 km/h
NE (3 Bft)
Moyenne _ -6,5 C 79 % 1029,5 hPa #0,0 mm 3,9 km/h (1 Bft) N-NE - #1:58 h 0 W/m -9,5 C -7,7 C 6,1 km/h (2 Bft)
Saint Bonnet de Bellac- Haute Vienne - France